sensor_id;sensor_type;location;lat;lon;timestamp;temperature;humidity
77839;SHT31;67034;43.226;27.932;2023-05-07T00:02:26;13.85;57.96
77839;SHT31;67034;43.226;27.932;2023-05-07T00:04:51;13.89;58.08
77839;SHT31;67034;43.226;27.932;2023-05-07T00:07:17;13.88;58.17
77839;SHT31;67034;43.226;27.932;2023-05-07T00:09:43;14.06;57.75
77839;SHT31;67034;43.226;27.932;2023-05-07T00:12:09;14.01;58.13
77839;SHT31;67034;43.226;27.932;2023-05-07T00:14:35;13.72;59.17
77839;SHT31;67034;43.226;27.932;2023-05-07T00:17:01;13.62;59.64
77839;SHT31;67034;43.226;27.932;2023-05-07T00:19:28;13.58;59.87
77839;SHT31;67034;43.226;27.932;2023-05-07T00:21:54;13.61;59.93
77839;SHT31;67034;43.226;27.932;2023-05-07T00:24:21;13.78;59.68
77839;SHT31;67034;43.226;27.932;2023-05-07T00:26:46;13.75;59.81
77839;SHT31;67034;43.226;27.932;2023-05-07T00:29:12;13.62;60.26
77839;SHT31;67034;43.226;27.932;2023-05-07T00:31:38;13.51;60.74
77839;SHT31;67034;43.226;27.932;2023-05-07T00:34:03;13.54;60.75
77839;SHT31;67034;43.226;27.932;2023-05-07T00:36:31;13.57;60.73
77839;SHT31;67034;43.226;27.932;2023-05-07T00:38:58;13.75;60.31
77839;SHT31;67034;43.226;27.932;2023-05-07T00:41:25;13.71;60.17
77839;SHT31;67034;43.226;27.932;2023-05-07T00:43:51;13.67;60.47
77839;SHT31;67034;43.226;27.932;2023-05-07T00:46:17;13.33;61.63
77839;SHT31;67034;43.226;27.932;2023-05-07T00:48:44;13.34;61.66
77839;SHT31;67034;43.226;27.932;2023-05-07T00:51:11;13.36;61.73
77839;SHT31;67034;43.226;27.932;2023-05-07T00:53:38;13.34;61.76
77839;SHT31;67034;43.226;27.932;2023-05-07T00:56:06;13.50;61.20
77839;SHT31;67034;43.226;27.932;2023-05-07T00:58:32;13.46;61.32
77839;SHT31;67034;43.226;27.932;2023-05-07T01:00:57;13.17;62.15
77839;SHT31;67034;43.226;27.932;2023-05-07T01:03:23;13.16;62.14
77839;SHT31;67034;43.226;27.932;2023-05-07T01:05:49;13.19;62.10
77839;SHT31;67034;43.226;27.932;2023-05-07T01:08:16;13.14;62.15
77839;SHT31;67034;43.226;27.932;2023-05-07T01:10:44;13.44;61.25
77839;SHT31;67034;43.226;27.932;2023-05-07T01:13:11;13.43;60.92
77839;SHT31;67034;43.226;27.932;2023-05-07T01:15:37;13.36;61.12
77839;SHT31;67034;43.226;27.932;2023-05-07T01:18:04;13.22;61.58
77839;SHT31;67034;43.226;27.932;2023-05-07T01:20:30;13.23;61.32
77839;SHT31;67034;43.226;27.932;2023-05-07T01:22:57;13.22;61.28
77839;SHT31;67034;43.226;27.932;2023-05-07T01:25:23;13.33;61.15
77839;SHT31;67034;43.226;27.932;2023-05-07T01:27:49;13.39;60.65
77839;SHT31;67034;43.226;27.932;2023-05-07T01:30:16;13.43;60.28
77839;SHT31;67034;43.226;27.932;2023-05-07T01:32:44;13.23;60.53
77839;SHT31;67034;43.226;27.932;2023-05-07T01:35:18;13.23;60.32
77839;SHT31;67034;43.226;27.932;2023-05-07T01:37:44;13.22;60.43
77839;SHT31;67034;43.226;27.932;2023-05-07T01:40:12;13.23;60.64
77839;SHT31;67034;43.226;27.932;2023-05-07T01:42:39;13.41;59.99
77839;SHT31;67034;43.226;27.932;2023-05-07T01:45:06;13.40;59.90
77839;SHT31;67034;43.226;27.932;2023-05-07T01:47:32;13.27;60.35
77839;SHT31;67034;43.226;27.932;2023-05-07T01:49:58;13.16;60.49
77839;SHT31;67034;43.226;27.932;2023-05-07T01:52:25;13.16;60.51
77839;SHT31;67034;43.226;27.932;2023-05-07T01:54:52;13.24;60.23
77839;SHT31;67034;43.226;27.932;2023-05-07T01:57:19;13.27;60.08
77839;SHT31;67034;43.226;27.932;2023-05-07T01:59:46;13.43;59.56
77839;SHT31;67034;43.226;27.932;2023-05-07T02:02:11;13.37;59.78
77839;SHT31;67034;43.226;27.932;2023-05-07T02:04:37;13.16;60.42
77839;SHT31;67034;43.226;27.932;2023-05-07T02:07:03;13.07;60.64
77839;SHT31;67034;43.226;27.932;2023-05-07T02:09:28;13.16;60.20
77839;SHT31;67034;43.226;27.932;2023-05-07T02:11:54;13.13;60.33
77839;SHT31;67034;43.226;27.932;2023-05-07T02:14:21;13.27;59.70
77839;SHT31;67034;43.226;27.932;2023-05-07T02:16:47;13.30;59.96
77839;SHT31;67034;43.226;27.932;2023-05-07T02:19:12;13.24;59.84
77839;SHT31;67034;43.226;27.932;2023-05-07T02:21:38;13.03;60.23
77839;SHT31;67034;43.226;27.932;2023-05-07T02:24:04;13.02;60.44
77839;SHT31;67034;43.226;27.932;2023-05-07T02:26:30;13.06;60.15
77839;SHT31;67034;43.226;27.932;2023-05-07T02:28:56;13.02;60.55
77839;SHT31;67034;43.226;27.932;2023-05-07T02:31:23;13.20;59.87
77839;SHT31;67034;43.226;27.932;2023-05-07T02:33:49;13.13;60.10
77839;SHT31;67034;43.226;27.932;2023-05-07T02:36:15;12.99;60.56
77839;SHT31;67034;43.226;27.932;2023-05-07T02:38:40;12.83;61.34
77839;SHT31;67034;43.226;27.932;2023-05-07T02:41:06;12.76;61.73
77839;SHT31;67034;43.226;27.932;2023-05-07T02:43:32;12.83;61.41
77839;SHT31;67034;43.226;27.932;2023-05-07T02:46:01;12.89;61.25
77839;SHT31;67034;43.226;27.932;2023-05-07T02:48:29;12.95;60.94
77839;SHT31;67034;43.226;27.932;2023-05-07T02:50:55;13.02;60.47
77839;SHT31;67034;43.226;27.932;2023-05-07T02:53:20;12.83;60.81
77839;SHT31;67034;43.226;27.932;2023-05-07T02:55:46;12.78;61.08
77839;SHT31;67034;43.226;27.932;2023-05-07T02:58:12;12.85;60.71
77839;SHT31;67034;43.226;27.932;2023-05-07T03:00:37;12.91;60.15
77839;SHT31;67034;43.226;27.932;2023-05-07T03:03:03;13.04;60.12
77839;SHT31;67034;43.226;27.932;2023-05-07T03:05:30;13.16;59.39
77839;SHT31;67034;43.226;27.932;2023-05-07T03:07:56;13.14;59.64
77839;SHT31;67034;43.226;27.932;2023-05-07T03:10:22;12.85;60.45
77839;SHT31;67034;43.226;27.932;2023-05-07T03:12:47;12.89;60.42
77839;SHT31;67034;43.226;27.932;2023-05-07T03:15:13;12.91;60.26
77839;SHT31;67034;43.226;27.932;2023-05-07T03:17:39;12.99;59.76
77839;SHT31;67034;43.226;27.932;2023-05-07T03:20:06;13.12;59.39
77839;SHT31;67034;43.226;27.932;2023-05-07T03:22:33;13.14;59.23
77839;SHT31;67034;43.226;27.932;2023-05-07T03:24:59;13.12;59.43
77839;SHT31;67034;43.226;27.932;2023-05-07T03:27:25;12.89;60.15
77839;SHT31;67034;43.226;27.932;2023-05-07T03:29:51;12.86;60.14
77839;SHT31;67034;43.226;27.932;2023-05-07T03:32:16;12.97;59.05
77839;SHT31;67034;43.226;27.932;2023-05-07T03:34:42;13.04;59.11
77839;SHT31;67034;43.226;27.932;2023-05-07T03:37:08;13.23;58.75
77839;SHT31;67034;43.226;27.932;2023-05-07T03:39:37;13.23;59.07
77839;SHT31;67034;43.226;27.932;2023-05-07T03:42:03;13.24;58.83
77839;SHT31;67034;43.226;27.932;2023-05-07T03:44:29;12.97;59.95
77839;SHT31;67034;43.226;27.932;2023-05-07T03:46:55;12.96;60.20
77839;SHT31;67034;43.226;27.932;2023-05-07T03:49:20;13.02;60.26
77839;SHT31;67034;43.226;27.932;2023-05-07T03:51:46;13.03;60.48
77839;SHT31;67034;43.226;27.932;2023-05-07T03:54:12;13.24;59.68
77839;SHT31;67034;43.226;27.932;2023-05-07T03:56:39;13.27;59.65
77839;SHT31;67034;43.226;27.932;2023-05-07T03:59:05;13.34;59.41
77839;SHT31;67034;43.226;27.932;2023-05-07T04:01:31;13.12;60.07
77839;SHT31;67034;43.226;27.932;2023-05-07T04:03:56;13.19;59.97
77839;SHT31;67034;43.226;27.932;2023-05-07T04:06:22;13.22;60.15
77839;SHT31;67034;43.226;27.932;2023-05-07T04:08:48;13.24;59.71
77839;SHT31;67034;43.226;27.932;2023-05-07T04:11:14;13.53;58.41
77839;SHT31;67034;43.226;27.932;2023-05-07T04:13:41;13.60;58.63
77839;SHT31;67034;43.226;27.932;2023-05-07T04:16:06;13.47;59.14
77839;SHT31;67034;43.226;27.932;2023-05-07T04:18:32;13.43;59.02
77839;SHT31;67034;43.226;27.932;2023-05-07T04:20:58;13.48;59.03
77839;SHT31;67034;43.226;27.932;2023-05-07T04:23:23;13.64;58.26
77839;SHT31;67034;43.226;27.932;2023-05-07T04:25:50;13.85;57.19
77839;SHT31;67034;43.226;27.932;2023-05-07T04:28:16;14.01;56.51
77839;SHT31;67034;43.226;27.932;2023-05-07T04:30:43;14.02;56.53
77839;SHT31;67034;43.226;27.932;2023-05-07T04:33:09;13.82;57.59
77839;SHT31;67034;43.226;27.932;2023-05-07T04:35:35;13.86;56.92
77839;SHT31;67034;43.226;27.932;2023-05-07T04:38:01;13.89;57.29
77839;SHT31;67034;43.226;27.932;2023-05-07T04:40:27;13.97;56.75
77839;SHT31;67034;43.226;27.932;2023-05-07T04:42:52;14.26;56.27
77839;SHT31;67034;43.226;27.932;2023-05-07T04:45:18;14.32;55.46
77839;SHT31;67034;43.226;27.932;2023-05-07T04:47:45;14.18;56.17
77839;SHT31;67034;43.226;27.932;2023-05-07T04:50:11;14.09;56.58
77839;SHT31;67034;43.226;27.932;2023-05-07T04:52:37;14.15;55.83
77839;SHT31;67034;43.226;27.932;2023-05-07T04:55:03;14.20;56.64
77839;SHT31;67034;43.226;27.932;2023-05-07T04:57:28;14.33;55.99
77839;SHT31;67034;43.226;27.932;2023-05-07T04:59:54;14.51;55.07
77839;SHT31;67034;43.226;27.932;2023-05-07T05:02:20;14.60;55.54
77839;SHT31;67034;43.226;27.932;2023-05-07T05:04:47;14.46;56.39
77839;SHT31;67034;43.226;27.932;2023-05-07T05:07:13;14.36;56.80
77839;SHT31;67034;43.226;27.932;2023-05-07T05:09:38;14.43;57.13
77839;SHT31;67034;43.226;27.932;2023-05-07T05:12:04;14.68;55.78
77839;SHT31;67034;43.226;27.932;2023-05-07T05:14:32;14.83;54.68
77839;SHT31;67034;43.226;27.932;2023-05-07T05:16:58;14.98;54.93
77839;SHT31;67034;43.226;27.932;2023-05-07T05:19:23;15.12;54.66
77839;SHT31;67034;43.226;27.932;2023-05-07T05:21:51;14.83;55.23
77839;SHT31;67034;43.226;27.932;2023-05-07T05:24:16;14.92;54.28
77839;SHT31;67034;43.226;27.932;2023-05-07T05:26:42;14.94;54.00
77839;SHT31;67034;43.226;27.932;2023-05-07T05:29:08;14.97;54.65
77839;SHT31;67034;43.226;27.932;2023-05-07T05:31:33;15.22;53.87
77839;SHT31;67034;43.226;27.932;2023-05-07T05:33:59;15.24;53.43
77839;SHT31;67034;43.226;27.932;2023-05-07T05:36:25;15.22;53.50
77839;SHT31;67034;43.226;27.932;2023-05-07T05:38:52;15.26;53.76
77839;SHT31;67034;43.226;27.932;2023-05-07T05:41:18;15.31;52.91
77839;SHT31;67034;43.226;27.932;2023-05-07T05:43:44;15.45;52.95
77839;SHT31;67034;43.226;27.932;2023-05-07T05:46:09;15.76;52.44
77839;SHT31;67034;43.226;27.932;2023-05-07T05:48:37;15.93;51.79
77839;SHT31;67034;43.226;27.932;2023-05-07T05:51:21;15.79;51.35
77839;SHT31;67034;43.226;27.932;2023-05-07T05:54:07;15.66;51.29
77839;SHT31;67034;43.226;27.932;2023-05-07T05:56:51;15.86;51.48
77839;SHT31;67034;43.226;27.932;2023-05-07T05:59:35;16.24;51.09
77839;SHT31;67034;43.226;27.932;2023-05-07T06:02:20;16.61;50.46
77839;SHT31;67034;43.226;27.932;2023-05-07T06:05:05;16.69;48.86
77839;SHT31;67034;43.226;27.932;2023-05-07T06:07:50;16.25;50.19
77839;SHT31;67034;43.226;27.932;2023-05-07T06:10:37;16.21;50.53
77839;SHT31;67034;43.226;27.932;2023-05-07T06:13:21;16.18;49.74
77839;SHT31;67034;43.226;27.932;2023-05-07T06:16:06;16.40;50.10
77839;SHT31;67034;43.226;27.932;2023-05-07T06:18:51;17.02;49.32
77839;SHT31;67034;43.226;27.932;2023-05-07T06:21:35;17.07;48.23
77839;SHT31;67034;43.226;27.932;2023-05-07T06:24:20;16.79;48.87
77839;SHT31;67034;43.226;27.932;2023-05-07T06:27:06;16.75;47.47
77839;SHT31;67034;43.226;27.932;2023-05-07T06:29:50;16.66;48.34
77839;SHT31;67034;43.226;27.932;2023-05-07T06:32:34;16.84;48.46
77839;SHT31;67034;43.226;27.932;2023-05-07T06:35:19;16.94;47.99
77839;SHT31;67034;43.226;27.932;2023-05-07T06:38:03;16.58;48.22
77839;SHT31;67034;43.226;27.932;2023-05-07T06:40:48;16.63;48.67
77839;SHT31;67034;43.226;27.932;2023-05-07T06:43:34;16.68;49.07
77839;SHT31;67034;43.226;27.932;2023-05-07T06:46:19;16.96;48.26
77839;SHT31;67034;43.226;27.932;2023-05-07T06:49:04;17.19;47.88
77839;SHT31;67034;43.226;27.932;2023-05-07T06:51:48;17.07;47.67
77839;SHT31;67034;43.226;27.932;2023-05-07T06:54:33;17.13;48.96
77839;SHT31;67034;43.226;27.932;2023-05-07T06:57:17;17.38;46.80
77839;SHT31;67034;43.226;27.932;2023-05-07T07:00:04;17.45;48.03
77839;SHT31;67034;43.226;27.932;2023-05-07T07:02:50;17.98;46.37
77839;SHT31;67034;43.226;27.932;2023-05-07T07:05:35;18.19;45.97
77839;SHT31;67034;43.226;27.932;2023-05-07T07:08:19;17.93;45.92
77839;SHT31;67034;43.226;27.932;2023-05-07T07:11:05;17.96;46.97
77839;SHT31;67034;43.226;27.932;2023-05-07T07:13:49;17.88;46.47
77839;SHT31;67034;43.226;27.932;2023-05-07T07:16:36;18.10;46.29
77839;SHT31;67034;43.226;27.932;2023-05-07T07:19:20;18.26;46.35
77839;SHT31;67034;43.226;27.932;2023-05-07T07:22:04;18.17;46.11
77839;SHT31;67034;43.226;27.932;2023-05-07T07:24:49;17.85;46.80
77839;SHT31;67034;43.226;27.932;2023-05-07T07:27:35;17.86;46.23
77839;SHT31;67034;43.226;27.932;2023-05-07T07:30:20;18.08;46.43
77839;SHT31;67034;43.226;27.932;2023-05-07T07:33:06;18.30;44.53
77839;SHT31;67034;43.226;27.932;2023-05-07T07:35:50;18.23;45.42
77839;SHT31;67034;43.226;27.932;2023-05-07T07:38:34;18.17;44.96
77839;SHT31;67034;43.226;27.932;2023-05-07T07:41:20;18.69;44.29
77839;SHT31;67034;43.226;27.932;2023-05-07T07:44:05;18.92;43.42
77839;SHT31;67034;43.226;27.932;2023-05-07T07:46:51;19.09;42.36
77839;SHT31;67034;43.226;27.932;2023-05-07T07:49:37;19.57;43.28
77839;SHT31;67034;43.226;27.932;2023-05-07T07:52:21;19.46;43.39
77839;SHT31;67034;43.226;27.932;2023-05-07T07:55:06;18.68;40.49
77839;SHT31;67034;43.226;27.932;2023-05-07T07:57:51;18.75;40.90
77839;SHT31;67034;43.226;27.932;2023-05-07T08:00:36;19.12;40.44
77839;SHT31;67034;43.226;27.932;2023-05-07T08:03:20;18.97;40.16
77839;SHT31;67034;43.226;27.932;2023-05-07T08:06:06;18.61;40.59
77839;SHT31;67034;43.226;27.932;2023-05-07T08:08:50;18.91;40.92
77839;SHT31;67034;43.226;27.932;2023-05-07T08:11:35;19.40;41.72
77839;SHT31;67034;43.226;27.932;2023-05-07T08:14:19;19.78;41.31
77839;SHT31;67034;43.226;27.932;2023-05-07T08:17:04;20.11;42.80
77839;SHT31;67034;43.226;27.932;2023-05-07T08:19:48;20.38;39.35
77839;SHT31;67034;43.226;27.932;2023-05-07T08:22:34;19.63;33.46
77839;SHT31;67034;43.226;27.932;2023-05-07T08:25:19;19.52;35.23
77839;SHT31;67034;43.226;27.932;2023-05-07T08:28:03;19.73;36.00
77839;SHT31;67034;43.226;27.932;2023-05-07T08:30:48;20.32;35.76
77839;SHT31;67034;43.226;27.932;2023-05-07T08:33:32;20.31;35.15
77839;SHT31;67034;43.226;27.932;2023-05-07T08:36:17;19.90;37.02
77839;SHT31;67034;43.226;27.932;2023-05-07T08:39:04;20.55;37.97
77839;SHT31;67034;43.226;27.932;2023-05-07T08:41:52;20.97;40.40
77839;SHT31;67034;43.226;27.932;2023-05-07T08:44:39;21.41;40.77
77839;SHT31;67034;43.226;27.932;2023-05-07T08:47:35;20.96;42.72
77839;SHT31;67034;43.226;27.932;2023-05-07T08:50:23;20.89;44.36
77839;SHT31;67034;43.226;27.932;2023-05-07T08:53:07;20.96;42.11
77839;SHT31;67034;43.226;27.932;2023-05-07T08:55:53;21.66;41.30
77839;SHT31;67034;43.226;27.932;2023-05-07T08:58:38;21.55;39.80
77839;SHT31;67034;43.226;27.932;2023-05-07T09:01:22;21.90;41.99
77839;SHT31;67034;43.226;27.932;2023-05-07T09:04:07;22.24;40.48
77839;SHT31;67034;43.226;27.932;2023-05-07T09:06:51;22.51;38.43
77839;SHT31;67034;43.226;27.932;2023-05-07T09:09:36;21.85;39.97
77839;SHT31;67034;43.226;27.932;2023-05-07T09:12:22;22.54;38.34
77839;SHT31;67034;43.226;27.932;2023-05-07T09:15:08;22.19;38.94
77839;SHT31;67034;43.226;27.932;2023-05-07T09:17:52;21.21;40.23
77839;SHT31;67034;43.226;27.932;2023-05-07T09:20:37;21.51;41.78
77839;SHT31;67034;43.226;27.932;2023-05-07T09:23:21;21.15;43.12
77839;SHT31;67034;43.226;27.932;2023-05-07T09:26:06;21.30;42.08
77839;SHT31;67034;43.226;27.932;2023-05-07T09:28:57;21.45;42.87
77839;SHT31;67034;43.226;27.932;2023-05-07T09:31:41;22.06;41.68
77839;SHT31;67034;43.226;27.932;2023-05-07T09:34:25;22.32;40.27
77839;SHT31;67034;43.226;27.932;2023-05-07T09:37:12;21.98;41.16
77839;SHT31;67034;43.226;27.932;2023-05-07T09:39:56;20.82;43.00
77839;SHT31;67034;43.226;27.932;2023-05-07T09:42:41;20.97;42.48
77839;SHT31;67034;43.226;27.932;2023-05-07T09:45:27;21.45;41.84
77839;SHT31;67034;43.226;27.932;2023-05-07T09:48:12;21.15;42.06
77839;SHT31;67034;43.226;27.932;2023-05-07T09:51:02;20.76;42.68
77839;SHT31;67034;43.226;27.932;2023-05-07T09:53:46;21.10;43.44
77839;SHT31;67034;43.226;27.932;2023-05-07T09:56:31;21.37;43.93
77839;SHT31;67034;43.226;27.932;2023-05-07T09:59:16;21.44;44.10
77839;SHT31;67034;43.226;27.932;2023-05-07T10:02:03;20.72;46.20
77839;SHT31;67034;43.226;27.932;2023-05-07T10:04:48;20.84;48.77
77839;SHT31;67034;43.226;27.932;2023-05-07T10:07:35;20.53;47.30
77839;SHT31;67034;43.226;27.932;2023-05-07T10:10:20;21.19;45.34
77839;SHT31;67034;43.226;27.932;2023-05-07T10:13:05;20.42;47.46
77839;SHT31;67034;43.226;27.932;2023-05-07T10:15:55;21.27;48.55
77839;SHT31;67034;43.226;27.932;2023-05-07T10:18:40;21.92;41.93
77839;SHT31;67034;43.226;27.932;2023-05-07T10:21:27;21.89;44.21
77839;SHT31;67034;43.226;27.932;2023-05-07T10:24:16;21.85;44.80
77839;SHT31;67034;43.226;27.932;2023-05-07T10:27:07;21.48;45.49
77839;SHT31;67034;43.226;27.932;2023-05-07T10:30:00;22.19;45.55
77839;SHT31;67034;43.226;27.932;2023-05-07T10:32:49;21.59;47.41
77839;SHT31;67034;43.226;27.932;2023-05-07T10:35:39;21.75;47.88
77839;SHT31;67034;43.226;27.932;2023-05-07T10:38:25;21.24;47.92
77839;SHT31;67034;43.226;27.932;2023-05-07T10:41:09;21.27;47.80
77839;SHT31;67034;43.226;27.932;2023-05-07T10:43:54;20.68;49.56
77839;SHT31;67034;43.226;27.932;2023-05-07T10:46:38;21.27;47.98
77839;SHT31;67034;43.226;27.932;2023-05-07T10:49:23;21.35;45.99
77839;SHT31;67034;43.226;27.932;2023-05-07T10:52:15;21.47;47.34
77839;SHT31;67034;43.226;27.932;2023-05-07T10:55:19;21.74;46.43
77839;SHT31;67034;43.226;27.932;2023-05-07T10:58:27;21.10;47.39
77839;SHT31;67034;43.226;27.932;2023-05-07T11:01:11;21.26;45.94
77839;SHT31;67034;43.226;27.932;2023-05-07T11:04:13;20.56;47.84
77839;SHT31;67034;43.226;27.932;2023-05-07T11:10:23;20.90;48.60
77839;SHT31;67034;43.226;27.932;2023-05-07T11:13:44;21.24;47.04
77839;SHT31;67034;43.226;27.932;2023-05-07T11:16:28;21.40;47.19
77839;SHT31;67034;43.226;27.932;2023-05-07T11:19:14;21.77;46.36
77839;SHT31;67034;43.226;27.932;2023-05-07T11:21:58;22.07;44.79
77839;SHT31;67034;43.226;27.932;2023-05-07T11:24:43;23.05;43.12
77839;SHT31;67034;43.226;27.932;2023-05-07T11:27:29;23.16;40.38
77839;SHT31;67034;43.226;27.932;2023-05-07T11:30:17;22.87;39.64
77839;SHT31;67034;43.226;27.932;2023-05-07T11:33:03;22.87;43.21
77839;SHT31;67034;43.226;27.932;2023-05-07T11:35:48;22.78;44.76
77839;SHT31;67034;43.226;27.932;2023-05-07T11:38:35;22.33;46.01
77839;SHT31;67034;43.226;27.932;2023-05-07T11:41:22;22.29;47.32
77839;SHT31;67034;43.226;27.932;2023-05-07T11:44:18;22.90;46.40
77839;SHT31;67034;43.226;27.932;2023-05-07T11:47:02;23.05;45.52
77839;SHT31;67034;43.226;27.932;2023-05-07T11:49:48;23.36;42.12
77839;SHT31;67034;43.226;27.932;2023-05-07T11:52:33;23.93;40.46
77839;SHT31;67034;43.226;27.932;2023-05-07T11:55:18;23.84;42.68
77839;SHT31;67034;43.226;27.932;2023-05-07T11:58:03;23.90;38.61
77839;SHT31;67034;43.226;27.932;2023-05-07T12:00:53;23.88;39.57
77839;SHT31;67034;43.226;27.932;2023-05-07T12:03:40;24.79;38.69
77839;SHT31;67034;43.226;27.932;2023-05-07T12:06:28;25.17;38.52
77839;SHT31;67034;43.226;27.932;2023-05-07T12:09:13;24.87;39.64
77839;SHT31;67034;43.226;27.932;2023-05-07T12:12:03;25.18;37.14
77839;SHT31;67034;43.226;27.932;2023-05-07T12:14:48;25.38;35.48
77839;SHT31;67034;43.226;27.932;2023-05-07T12:17:34;25.21;35.30
77839;SHT31;67034;43.226;27.932;2023-05-07T12:20:18;25.59;33.58
77839;SHT31;67034;43.226;27.932;2023-05-07T12:23:02;24.76;36.30
77839;SHT31;67034;43.226;27.932;2023-05-07T12:25:47;24.73;35.48
77839;SHT31;67034;43.226;27.932;2023-05-07T12:28:36;25.17;35.05
77839;SHT31;67034;43.226;27.932;2023-05-07T12:31:21;25.69;33.05
77839;SHT31;67034;43.226;27.932;2023-05-07T12:34:07;25.26;34.83
77839;SHT31;67034;43.226;27.932;2023-05-07T12:36:53;25.28;32.56
77839;SHT31;67034;43.226;27.932;2023-05-07T12:39:37;25.37;32.90
77839;SHT31;67034;43.226;27.932;2023-05-07T12:42:21;24.20;36.56
77839;SHT31;67034;43.226;27.932;2023-05-07T12:45:10;24.55;33.11
77839;SHT31;67034;43.226;27.932;2023-05-07T12:47:55;24.33;32.55
77839;SHT31;67034;43.226;27.932;2023-05-07T12:50:41;23.42;34.36
77839;SHT31;67034;43.226;27.932;2023-05-07T12:53:26;23.09;36.40
77839;SHT31;67034;43.226;27.932;2023-05-07T12:56:11;23.39;33.99
77839;SHT31;67034;43.226;27.932;2023-05-07T12:58:57;23.91;32.79
77839;SHT31;67034;43.226;27.932;2023-05-07T13:01:43;23.06;35.53
77839;SHT31;67034;43.226;27.932;2023-05-07T13:04:28;21.68;43.68
77839;SHT31;67034;43.226;27.932;2023-05-07T13:07:14;21.65;43.87
77839;SHT31;67034;43.226;27.932;2023-05-07T13:09:58;21.10;47.43
77839;SHT31;67034;43.226;27.932;2023-05-07T13:12:42;20.57;48.94
77839;SHT31;67034;43.226;27.932;2023-05-07T13:15:27;19.69;50.18
77839;SHT31;67034;43.226;27.932;2023-05-07T13:18:11;18.89;52.68
77839;SHT31;67034;43.226;27.932;2023-05-07T13:20:56;19.08;51.21
77839;SHT31;67034;43.226;27.932;2023-05-07T13:23:42;18.79;50.83
77839;SHT31;67034;43.226;27.932;2023-05-07T13:26:26;18.88;50.40
77839;SHT31;67034;43.226;27.932;2023-05-07T13:29:10;18.94;51.24
77839;SHT31;67034;43.226;27.932;2023-05-07T13:31:55;19.22;50.20
77839;SHT31;67034;43.226;27.932;2023-05-07T13:34:40;19.83;48.57
77839;SHT31;67034;43.226;27.932;2023-05-07T13:37:24;19.50;45.37
77839;SHT31;67034;43.226;27.932;2023-05-07T13:40:11;19.83;46.16
77839;SHT31;67034;43.226;27.932;2023-05-07T13:42:57;19.30;44.38
77839;SHT31;67034;43.226;27.932;2023-05-07T13:45:42;19.55;45.76
77839;SHT31;67034;43.226;27.932;2023-05-07T13:48:27;19.93;44.18
77839;SHT31;67034;43.226;27.932;2023-05-07T13:51:12;20.03;44.85
77839;SHT31;67034;43.226;27.932;2023-05-07T13:53:57;20.28;43.78
77839;SHT31;67034;43.226;27.932;2023-05-07T13:56:44;20.34;43.98
77839;SHT31;67034;43.226;27.932;2023-05-07T13:59:28;20.36;42.69
77839;SHT31;67034;43.226;27.932;2023-05-07T14:02:13;19.87;43.06
77839;SHT31;67034;43.226;27.932;2023-05-07T14:04:57;19.91;44.00
77839;SHT31;67034;43.226;27.932;2023-05-07T14:07:41;20.15;44.05
77839;SHT31;67034;43.226;27.932;2023-05-07T14:10:26;21.04;41.81
77839;SHT31;67034;43.226;27.932;2023-05-07T14:13:12;20.71;42.18
77839;SHT31;67034;43.226;27.932;2023-05-07T14:15:56;20.35;45.03
77839;SHT31;67034;43.226;27.932;2023-05-07T14:18:40;21.28;42.57
77839;SHT31;67034;43.226;27.932;2023-05-07T14:21:25;21.27;42.73
77839;SHT31;67034;43.226;27.932;2023-05-07T14:24:10;21.11;43.71
77839;SHT31;67034;43.226;27.932;2023-05-07T14:26:54;20.43;46.75
77839;SHT31;67034;43.226;27.932;2023-05-07T14:29:40;20.55;47.35
77839;SHT31;67034;43.226;27.932;2023-05-07T14:32:25;19.98;47.61
77839;SHT31;67034;43.226;27.932;2023-05-07T14:35:09;19.76;48.80
77839;SHT31;67034;43.226;27.932;2023-05-07T14:37:54;19.50;49.63
77839;SHT31;67034;43.226;27.932;2023-05-07T14:40:38;19.08;50.79
77839;SHT31;67034;43.226;27.932;2023-05-07T14:43:23;18.79;51.39
77839;SHT31;67034;43.226;27.932;2023-05-07T14:46:09;18.85;51.17
77839;SHT31;67034;43.226;27.932;2023-05-07T14:48:53;18.65;51.67
77839;SHT31;67034;43.226;27.932;2023-05-07T14:51:38;18.69;50.93
77839;SHT31;67034;43.226;27.932;2023-05-07T14:54:22;18.25;53.06
77839;SHT31;67034;43.226;27.932;2023-05-07T14:57:09;18.32;52.57
77839;SHT31;67034;43.226;27.932;2023-05-07T14:59:54;18.46;53.09
77839;SHT31;67034;43.226;27.932;2023-05-07T15:02:40;18.89;52.90
77839;SHT31;67034;43.226;27.932;2023-05-07T15:05:24;18.43;54.55
77839;SHT31;67034;43.226;27.932;2023-05-07T15:08:08;18.34;54.97
77839;SHT31;67034;43.226;27.932;2023-05-07T15:10:53;18.84;53.70
77839;SHT31;67034;43.226;27.932;2023-05-07T15:13:37;18.50;53.99
77839;SHT31;67034;43.226;27.932;2023-05-07T15:16:22;18.63;53.58
77839;SHT31;67034;43.226;27.932;2023-05-07T15:19:07;17.83;56.31
77839;SHT31;67034;43.226;27.932;2023-05-07T15:21:52;17.32;58.03
77839;SHT31;67034;43.226;27.932;2023-05-07T15:24:37;17.34;58.53
77839;SHT31;67034;43.226;27.932;2023-05-07T15:27:21;17.61;57.84
77839;SHT31;67034;43.226;27.932;2023-05-07T15:30:07;17.55;58.23
77839;SHT31;67034;43.226;27.932;2023-05-07T15:32:54;17.03;59.73
77839;SHT31;67034;43.226;27.932;2023-05-07T15:35:40;16.61;61.05
77839;SHT31;67034;43.226;27.932;2023-05-07T15:38:24;16.36;62.25
77839;SHT31;67034;43.226;27.932;2023-05-07T15:41:09;16.53;61.98
77839;SHT31;67034;43.226;27.932;2023-05-07T15:43:54;16.47;62.45
77839;SHT31;67034;43.226;27.932;2023-05-07T15:46:38;16.26;63.27
77839;SHT31;67034;43.226;27.932;2023-05-07T15:49:23;16.18;63.94
77839;SHT31;67034;43.226;27.932;2023-05-07T15:52:09;15.74;65.63
77839;SHT31;67034;43.226;27.932;2023-05-07T15:54:58;16.24;64.09
77839;SHT31;67034;43.226;27.932;2023-05-07T15:57:42;15.90;64.12
77839;SHT31;67034;43.226;27.932;2023-05-07T16:00:27;15.79;64.44
77839;SHT31;67034;43.226;27.932;2023-05-07T16:03:12;15.42;65.01
77839;SHT31;67034;43.226;27.932;2023-05-07T16:05:56;15.34;65.45
77839;SHT31;67034;43.226;27.932;2023-05-07T16:08:42;15.53;64.84
77839;SHT31;67034;43.226;27.932;2023-05-07T16:11:28;15.29;66.33
77839;SHT31;67034;43.226;27.932;2023-05-07T16:14:16;14.98;68.17
77839;SHT31;67034;43.226;27.932;2023-05-07T16:17:01;14.81;68.98
77839;SHT31;67034;43.226;27.932;2023-05-07T16:19:45;14.70;69.33
77839;SHT31;67034;43.226;27.932;2023-05-07T16:22:29;15.07;68.38
77839;SHT31;67034;43.226;27.932;2023-05-07T16:25:16;15.01;68.64
77839;SHT31;67034;43.226;27.932;2023-05-07T16:28:00;14.70;69.49